Chadron Municipal Airport
KCDR : now visible

Airfield :











YOU CAN JOIN US ON...

 
LOGIN :

Register | Disclaimer

   EN    FR    IT 

 









Legend :    VFR   Marginal VFR   IFR   Intensive IFR   Very Intensive IFR
Visi :
Ceiling :
>= 8 km
>= 3000ft
5 to 8 km
1000 to 3000 ft
1500m to 5 km
500 to 1000 ft
800 to 1500m
200 to 500 ft
< 800m
< 200 ft
Symbols :   Thunderstorms  Fog  Heavy snow  Heavy precipitations  Wind > 20 kt






- Airport Elevation : 3297 ft


KCDR - Chadron Municipal

CURRENT METAR :
  • 301153Z AUTO 28007KT 10SM CLR M22/M26 A3027 RMK AO2 SLP347 60000 T12221256 11172 21222 55008

EXPIRED METARs :
  • 301053Z AUTO 27006KT 10SM BKN060 BKN100 M19/M23 A3027 RMK AO2 UPB0955E21 SLP341 P0000 T11941233
  • 300953Z AUTO 27009KT 10SM OVC060 M18/M23 A3028 RMK AO2 UPB23E32 SLP342 P0000 T11781228

TAF KCDR
Valid from the 30 at 12:00 until the 31 at 12:00 UTC


301120Z 3012/3112 28007KT P6SM OVC050
FM301600 27009KT P6SM SCT080
KZDV FIR / North America



MET'MAP, your aeronautical weather chart ! - Copyright ORBIFLY December 2007 - Disclaimer

ORBIFLY MET'MAP TEAM :

Programming & Development : Alexandra Zaïnal
Original concept : Baudouin d'Aumeries
Technical & hardware support : Manuel Goepfert
Assistance : Marc-Olivier Méhu




SOURCES & CREDITS :

   NOAA       Earth
Advisory